Latest Coastal Weather Observations for Eucla

IDW60701

Issued at 2:35 pm WST Wednesday 22 October 2014 (issued every 10 minutes, with the page automatically refreshed every 10 minutes)

About coastal observations | Map of coastal stations | Coastal observations for WA | Marine services | Other Formats
Station Details ID: 011003 Name: EUCLA Lat: -31.68 Lon: 128.90 Height: 93.1 m
Data from the previous 72 hours. | See also: Recent months at Eucla
Date/Time
WST
Temp

°C
Wind Pressure Rain
since 9am
mm
Weather Cloud Vis
km
Sea
Height
m
Swell
Dir
 
Speed
knots
Gust
knots
hPa Trend Height
m
Period
s
Dir
22/02:30pm 18.4 SE 9 13 1021.6 - 0.0 - - - - - - -
22/02:00pm 18.4 SE 9 14 1021.6 - 0.0 - - - - - - -
22/01:30pm 19.3 SE 10 16 1021.9 - 0.0 - - - - - - -
22/01:00pm 19.1 SE 8 13 1022.2 - 0.0 - - - - - - -
22/12:30pm 19.4 SE 8 13 1022.6 - 0.0 - - - - - - -
22/12:00pm 18.9 ESE 8 12 1023.0 - 0.0 - - - - - - -
22/11:30am 18.9 SE 8 13 1023.1 - 0.0 - - - - - - -
22/11:00am 18.2 SE 7 10 1023.6 - 0.0 - - - - - - -
22/10:30am 18.2 SE 7 10 1023.9 - 0.0 - - - - - - -
22/10:00am 18.2 SE 9 13 1023.9 - 0.0 - - - - - - -
22/09:30am 17.6 SE 8 11 1024.0 - 0.0 - - - - - - -
22/09:00am 17.1 SE 8 11 1024.0 - 0.0 - - - - - - -
22/08:30am 17.1 ESE 8 13 1024.0 - 0.0 - - - - - - -
22/08:00am 17.0 SE 8 11 1024.0 - 0.0 - - - - - - -
22/07:30am 16.8 SE 7 10 1023.9 - 0.0 - - - - - - -
22/07:00am 16.6 SE 7 10 1023.8 - 0.0 - - - - - - -
22/06:30am 16.3 SE 7 10 1023.7 - 0.0 - - - - - - -
22/06:00am 16.0 SSE 7 12 1023.3 - 0.0 - - - - - - -
22/05:30am 15.6 SSE 7 11 1023.1 - 0.0 - - - - - - -
22/05:00am 15.1 S 7 11 1022.7 - 0.0 - - - - - - -
22/04:30am 15.2 SSE 7 9 1022.4 - 0.0 - - - - - - -
22/04:00am 14.9 SSE 7 11 1022.3 - 0.0 - - - - - - -
22/03:30am 14.9 S 7 10 1022.1 - 0.0 - - - - - - -
22/03:00am 15.0 SSE 6 9 1022.0 - 0.0 - - - - - - -
22/02:30am 14.9 SSE 7 10 1021.8 - 0.0 - - - - - - -
22/02:00am 14.6 S 6 9 1021.7 - 0.0 - - - - - - -
22/01:30am 13.6 S 5 7 1021.5 - 0.0 - - - - - - -
22/01:00am 13.9 SSW 4 6 1021.6 - 0.0 - - - - - - -
22/12:30am 13.9 S 5 7 1021.6 - 0.0 - - - - - - -
22/12:00am 14.2 SSW 4 6 1021.7 - 0.0 - - - - - - -
 
Date/Time
WST
Temp

°C
Wind Pressure Rain
since 9am
mm
Weather Cloud Vis
km
Sea
Height
m
Swell
Dir
 
Speed
knots
Gust
knots
hPa Trend Height
m
Period
s
Dir
21/11:30pm 14.5 S 5 6 1021.9 - 0.0 - - - - - - -
21/11:00pm 14.7 S 4 5 1022.2 - 0.0 - - - - - - -
21/10:30pm 14.9 S 5 7 1022.5 - 0.0 - - - - - - -
21/10:00pm 15.1 SSE 5 6 1022.7 - 0.0 - - - - - - -
21/09:30pm 15.3 SSE 5 7 1022.9 - 0.0 - - - - - - -
21/09:00pm 15.5 SSE 6 9 1023.1 - 0.0 - - - - - - -
21/08:30pm 15.7 SSE 5 7 1023.1 - 0.0 - - - - - - -
21/08:00pm 16.0 SSE 6 9 1023.2 - 0.0 - - - - - - -
21/07:30pm 16.5 SSE 7 11 1022.9 - 0.0 - - - - - - -
21/07:00pm 16.9 SSE 7 10 1022.6 - 0.0 - - - - - - -
21/06:30pm 16.7 S 7 9 1022.2 - 0.0 - - - - - - -
21/06:00pm 17.1 SSE 7 10 1021.8 - 0.0 - - - - - - -
21/05:30pm 17.5 SSE 7 11 1021.4 - 0.0 - - - - - - -
21/05:00pm 18.3 SSE 8 10 1021.0 - 0.0 - - - - - - -
21/04:30pm 19.3 SSE 9 14 1020.5 - 0.0 - - - - - - -
21/04:00pm 19.9 SSE 9 13 1020.3 - 0.0 - - - - - - -
21/03:30pm 20.2 SSE 10 16 1020.1 - 0.0 - - - - - - -
21/03:00pm 20.5 SSE 10 18 1019.8 - 0.0 - - - - - - -
21/02:30pm 21.3 SSE 12 19 1019.6 - 0.0 - - - - - - -
21/02:00pm 21.6 S 12 18 1019.8 - 0.0 - - - - - - -
21/01:30pm 22.0 S 13 18 1019.7 - 0.0 - - - - - - -
21/01:00pm 23.7 S 12 19 1019.6 - 0.0 - - - - - - -
21/12:30pm 23.4 S 12 18 1019.6 - 0.0 - - - - - - -
21/12:00pm 23.7 S 12 17 1019.5 - 0.0 - - - - - - -
21/11:30am 23.8 S 11 19 1019.3 - 0.0 - - - - - - -
21/11:00am 24.7 SSW 11 16 1019.2 - 0.0 - - - - - - -
21/10:30am 24.4 SSW 10 15 1019.3 - 0.0 - - - - - - -
21/10:00am 23.6 SSW 10 15 1019.3 - 0.0 - - - - - - -
21/09:30am 22.5 S 11 16 1019.4 - 0.0 - - - - - - -
21/09:00am 21.9 SSW 10 15 1019.4 - 8.8 - - - - - - -
21/08:30am 21.8 SSW 9 14 1019.1 - 8.8 - - - - - - -
21/08:00am 21.2 SSW 9 13 1018.9 - 8.8 - - - - - - -
21/07:30am 20.2 SW 8 12 1018.5 - 8.8 - - - - - - -
21/07:00am 18.8 SW 7 10 1018.2 - 8.8 - - - - - - -
21/06:30am 18.8 SSW 8 12 1018.0 - 8.8 - - - - - - -
21/06:00am 17.9 N 3 4 1017.2 - 8.8 - - - - - - -
21/05:30am 15.1 CALM 0 0 1017.2 - 8.8 - - - - - - -
21/05:00am 15.5 WSW 5 7 1017.0 - 8.8 - - - - - - -
21/04:30am 15.1 W 5 6 1016.7 - 8.4 - - - - - - -
21/04:00am 14.4 CALM 0 0 1016.3 - 8.4 - - - - - - -
21/03:30am 15.0 WSW 5 7 1015.9 - 8.4 - - - - - - -
21/03:00am 15.1 S 4 5 1015.7 - 8.4 - - - - - - -
21/02:30am 15.7 S 5 6 1015.5 - 8.4 - - - - - - -
21/02:00am 15.9 S 5 7 1015.4 - 8.4 - - - - - - -
21/01:30am 15.8 S 5 6 1015.4 - 8.4 - - - - - - -
21/01:00am 15.9 S 6 7 1015.5 - 8.4 - - - - - - -
21/12:30am 15.9 SSW 7 8 1015.4 - 8.4 - - - - - - -
21/12:00am 16.5 S 7 9 1014.9 - 8.4 - - - - - - -
 
Date/Time
WST
Temp

°C
Wind Pressure Rain
since 9am
mm
Weather Cloud Vis
km
Sea
Height
m
Swell
Dir
 
Speed
knots
Gust
knots
hPa Trend Height
m
Period
s
Dir
20/11:30pm 16.4 SSW 4 8 1015.2 - 8.4 - - - - - - -
20/11:00pm 16.9 NW 3 4 1015.4 - 8.4 - - - - - - -
20/10:30pm 17.2 NE 7 9 1015.3 - 8.4 - - - - - - -
20/10:00pm 18.1 WNW 5 7 1014.8 - 8.4 - - - - - - -
20/09:30pm 17.5 WSW 5 6 1014.9 - 8.4 - - - - - - -
20/09:00pm 18.5 WSW 6 6 1015.1 - 8.4 - - - - - - -
20/08:30pm 18.6 NW 5 6 1015.5 - 8.4 - - - - - - -
20/08:00pm 18.4 N 6 7 1015.3 - 8.4 - - - - - - -
20/07:30pm 20.1 N 7 10 1015.3 - 8.4 - - - - - - -
20/07:10pm 20.0 NW 18 37 1016.4 - 7.0 - - - - - - -
20/07:00pm 19.5 E 5 7 1014.4 - 4.6 - - - - - - -
20/06:30pm 19.0 NW 3 9 1014.0 - 4.6 - - - - - - -
20/06:16pm 19.9 S 5 8 1014.6 - 2.4 - - - - - - -
20/06:00pm 25.0 NNE 3 10 1013.8 - 2.0 - - - - - - -
20/05:30pm 26.6 E 4 6 1012.9 - 2.0 - - - - - - -
20/05:00pm 26.9 SW 3 6 1012.6 - 2.0 - - - - - - -
20/04:30pm 30.8 NNW 7 12 1012.5 - 2.0 - - - - - - -
20/04:00pm 32.0 NNW 10 15 1012.4 - 2.0 - - - - - - -
20/03:30pm 32.5 N 9 14 1012.2 - 2.0 - - - - - - -
20/03:00pm 31.8 NNW 10 14 1011.9 - 2.0 Fine Mostly clear 40 - - - -
20/02:30pm 31.8 NNW 8 14 1012.2 - 2.0 - - - - - - -
20/02:00pm 31.3 NNW 9 14 1012.6 - 2.0 - - - - - - -
20/01:30pm 29.5 N 9 14 1013.0 - 2.0 - - - - - - -
20/01:00pm 30.3 N 7 10 1013.1 - 2.0 - - - - - - -
20/12:30pm 29.3 N 6 10 1013.4 - 2.0 - - - - - - -
20/12:00pm 28.9 NW 5 8 1013.8 - 2.0 Recent precip. - - - - - -
20/11:30am 26.1 WNW 5 6 1014.0 - 2.0 - - - - - - -
20/11:00am 22.5 NW 6 8 1014.6 - 1.8 - - - - - - -
20/10:30am 18.9 N 5 6 1015.7 - 1.8 - - - - - - -
20/10:00am 17.3 NW 9 13 1017.5 - 1.8 - - - - - - -
20/09:57am 17.3 NW 10 13 1017.8 - 1.8 - - - - - - -
20/09:30am 17.7 N 16 28 1019.8 - 0.6 - - - - - - -
20/09:26am 17.7 N 15 28 1019.2 - 0.2 - - - - - - -
20/09:21am 17.5 N 12 17 1018.4 - 0.2 - - - - - - -
20/09:00am 18.0 NE 10 16 1016.2 - 0.0 Thunderstorm Cloudy 5 - - - -
20/08:30am 17.6 ESE 6 8 1015.4 - 0.0 - - - - - - -
20/08:00am 17.1 S 6 16 1014.7 - 0.0 - - - - - - -
20/07:54am 16.7 SSE 9 16 1014.7 - 0.0 - - - - - - -
20/07:48am 16.5 ESE 9 18 1012.6 - 0.0 - - - - - - -
20/07:30am 16.6 SE 6 10 1015.1 - 0.0 - - - - - - -
20/07:00am 16.6 SE 7 11 1016.0 - 0.0 - - - - - - -
20/06:30am 16.7 S 6 8 1016.3 - 0.0 - - - - - - -
20/06:00am 16.0 SW 5 6 1017.1 - 0.0 - - - - - - -
20/05:30am 15.8 W 5 8 1017.5 - 0.0 - - - - - - -
20/05:00am 15.1 WSW 6 8 1017.8 - 0.0 - - - - - - -
20/04:30am 15.6 SW 6 8 1016.1 - 0.0 - - - - - - -
20/04:00am 15.8 S 6 8 1015.5 - 0.0 - - - - - - -
20/03:30am 15.8 SSE 9 14 1014.6 - 0.0 - - - - - - -
20/03:00am 15.8 S 9 13 1014.7 - 0.0 - - - - - - -
20/02:30am 15.9 S 9 13 1015.1 - 0.0 - - - - - - -
20/02:00am 16.2 SW 11 15 1015.8 - 0.0 - - - - - - -
20/01:30am 16.4 WSW 11 17 1016.2 - 0.0 - - - - - - -
20/01:00am 16.2 S 8 12 1014.6 - 0.0 - - - - - - -
20/12:30am 16.3 SSE 8 11 1014.1 - 0.0 - - - - - - -
20/12:00am 16.3 SE 7 11 1014.3 - 0.0 - - - - - - -
 
Date/Time
WST
Temp

°C
Wind Pressure Rain
since 9am
mm
Weather Cloud Vis
km
Sea
Height
m
Swell
Dir
 
Speed
knots
Gust
knots
hPa Trend Height
m
Period
s
Dir
19/11:30pm 16.3 ESE 8 14 1014.8 - 0.0 - - - - - - -
19/11:00pm 16.3 ESE 9 15 1015.4 - 0.0 - - - - - - -
19/10:30pm 16.3 E 12 21 1014.7 - 0.0 - - - - - - -
19/10:00pm 16.2 E 14 20 1014.3 - 0.0 - - - - - - -
19/09:30pm 16.3 ESE 15 23 1014.6 - 0.0 - - - - - - -
19/09:00pm 16.4 ESE 10 18 1016.2 - 0.0 - - - - - - -
19/08:30pm 16.5 ESE 9 15 1016.8 - 0.0 - - - - - - -
19/08:00pm 16.4 ESE 11 18 1015.9 - 0.0 - - - - - - -
19/07:30pm 16.5 ESE 9 17 1016.2 - 0.0 - - - - - - -
19/07:00pm 16.4 ESE 12 23 1015.8 - 0.0 - - - - - - -
19/06:30pm 16.4 ESE 9 17 1016.4 - 0.0 - - - - - - -
19/06:00pm 16.4 ESE 12 19 1015.5 - 0.0 - - - - - - -
19/05:30pm 16.5 ESE 14 20 1015.6 - 0.0 - - - - - - -
19/05:00pm 16.7 ESE 13 19 1016.1 - 0.0 - - - - - - -
19/04:30pm 16.9 ESE 12 18 1016.1 - 0.0 - - - - - - -
19/04:00pm 17.0 ESE 12 18 1015.7 - 0.0 - - - - - - -
19/03:30pm 17.1 ESE 13 21 1015.6 - 0.0 - - - - - - -
19/03:00pm 17.8 SE 13 23 1015.8 - 0.0 Haze Cloudy 10 - - - -

Other Formats:

Comma delimited format used in spreadsheet applications
http://www.bom.gov.au/fwo/IDW60701/IDW60701.94647.axf

JavaScript Object Notation format (JSON) in row-major order
http://www.bom.gov.au/fwo/IDW60701/IDW60701.94647.json